sensor_id;sensor_type;location;lat;lon;timestamp;pressure;altitude;pressure_sealevel;temperature;humidity
81509;BME280;70930;52.412;13.554;2024-01-30T00:00:21;102498.91;;;1.03;74.96
81509;BME280;70930;52.412;13.554;2024-01-30T00:02:46;102496.53;;;0.96;74.83
81509;BME280;70930;52.412;13.554;2024-01-30T00:05:12;102497.00;;;1.06;74.92
81509;BME280;70930;52.412;13.554;2024-01-30T00:07:37;102493.38;;;1.09;75.18
81509;BME280;70930;52.412;13.554;2024-01-30T00:10:02;102494.44;;;1.05;75.02
81509;BME280;70930;52.412;13.554;2024-01-30T00:12:28;102505.03;;;1.02;74.88
81509;BME280;70930;52.412;13.554;2024-01-30T00:14:53;102502.00;;;0.92;75.83
81509;BME280;70930;52.412;13.554;2024-01-30T00:17:19;102495.50;;;1.01;75.69
81509;BME280;70930;52.412;13.554;2024-01-30T00:19:46;102499.03;;;1.00;75.31
81509;BME280;70930;52.412;13.554;2024-01-30T00:22:11;102502.34;;;0.84;75.76
81509;BME280;70930;52.412;13.554;2024-01-30T00:24:36;102496.81;;;0.90;75.97
81509;BME280;70930;52.412;13.554;2024-01-30T00:27:02;102500.56;;;0.85;76.24
81509;BME280;70930;52.412;13.554;2024-01-30T00:29:27;102492.34;;;0.73;76.75
81509;BME280;70930;52.412;13.554;2024-01-30T00:31:56;102502.72;;;0.56;77.81
81509;BME280;70930;52.412;13.554;2024-01-30T00:34:21;102501.81;;;0.57;78.78
81509;BME280;70930;52.412;13.554;2024-01-30T00:36:47;102506.91;;;0.60;77.73
81509;BME280;70930;52.412;13.554;2024-01-30T00:39:12;102496.66;;;0.56;78.18
81509;BME280;70930;52.412;13.554;2024-01-30T00:41:37;102500.63;;;0.64;77.11
81509;BME280;70930;52.412;13.554;2024-01-30T00:44:03;102498.25;;;0.58;77.25
81509;BME280;70930;52.412;13.554;2024-01-30T00:46:28;102489.69;;;0.55;77.06
81509;BME280;70930;52.412;13.554;2024-01-30T00:48:54;102492.06;;;0.61;76.90
81509;BME280;70930;52.412;13.554;2024-01-30T00:51:19;102491.22;;;0.60;77.80
81509;BME280;70930;52.412;13.554;2024-01-30T00:53:45;102483.97;;;0.67;77.43
81509;BME280;70930;52.412;13.554;2024-01-30T00:56:10;102488.19;;;0.69;76.60
81509;BME280;70930;52.412;13.554;2024-01-30T00:58:35;102501.50;;;0.44;78.33
81509;BME280;70930;52.412;13.554;2024-01-30T01:01:01;102494.63;;;0.42;78.51
81509;BME280;70930;52.412;13.554;2024-01-30T01:03:26;102497.03;;;0.46;78.98
81509;BME280;70930;52.412;13.554;2024-01-30T01:05:52;102500.69;;;0.42;78.52
81509;BME280;70930;52.412;13.554;2024-01-30T01:08:17;102500.69;;;0.42;79.26
81509;BME280;70930;52.412;13.554;2024-01-30T01:10:43;102496.13;;;0.47;78.21
81509;BME280;70930;52.412;13.554;2024-01-30T01:13:08;102489.16;;;0.28;79.46
81509;BME280;70930;52.412;13.554;2024-01-30T01:15:33;102492.81;;;0.44;79.07
81509;BME280;70930;52.412;13.554;2024-01-30T01:17:59;102496.56;;;0.57;78.34
81509;BME280;70930;52.412;13.554;2024-01-30T01:20:24;102496.19;;;0.46;78.49
81509;BME280;70930;52.412;13.554;2024-01-30T01:22:49;102491.22;;;0.60;78.01
81509;BME280;70930;52.412;13.554;2024-01-30T01:25:15;102483.75;;;0.51;78.30
81509;BME280;70930;52.412;13.554;2024-01-30T01:27:40;102487.25;;;0.70;77.76
81509;BME280;70930;52.412;13.554;2024-01-30T01:30:09;102484.28;;;0.59;78.39
81509;BME280;70930;52.412;13.554;2024-01-30T01:32:34;102487.75;;;0.60;78.44
81509;BME280;70930;52.412;13.554;2024-01-30T01:35:00;102491.47;;;0.54;78.71
81509;BME280;70930;52.412;13.554;2024-01-30T01:37:25;102487.66;;;0.61;78.85
81509;BME280;70930;52.412;13.554;2024-01-30T01:39:52;102482.19;;;0.67;78.14
81509;BME280;70930;52.412;13.554;2024-01-30T01:42:17;102494.47;;;0.65;78.25
81509;BME280;70930;52.412;13.554;2024-01-30T01:44:42;102488.66;;;0.59;78.72
81509;BME280;70930;52.412;13.554;2024-01-30T01:47:08;102485.34;;;0.55;79.05
81509;BME280;70930;52.412;13.554;2024-01-30T01:49:33;102478.44;;;0.73;78.10
81509;BME280;70930;52.412;13.554;2024-01-30T01:51:59;102482.94;;;0.69;78.03
81509;BME280;70930;52.412;13.554;2024-01-30T01:54:25;102479.78;;;0.82;77.48
81509;BME280;70930;52.412;13.554;2024-01-30T01:56:52;102476.09;;;0.86;77.48
81509;BME280;70930;52.412;13.554;2024-01-30T01:59:19;102475.53;;;0.98;76.75
81509;BME280;70930;52.412;13.554;2024-01-30T02:01:45;102477.59;;;0.91;77.75
81509;BME280;70930;52.412;13.554;2024-01-30T02:04:14;102465.28;;;0.93;76.98
81509;BME280;70930;52.412;13.554;2024-01-30T02:06:39;102470.31;;;0.98;76.78
81509;BME280;70930;52.412;13.554;2024-01-30T02:09:05;102475.34;;;0.84;77.58
81509;BME280;70930;52.412;13.554;2024-01-30T02:11:30;102482.38;;;0.82;78.46
81509;BME280;70930;52.412;13.554;2024-01-30T02:13:56;102474.34;;;0.86;78.63
81509;BME280;70930;52.412;13.554;2024-01-30T02:16:21;102473.97;;;0.94;77.29
81509;BME280;70930;52.412;13.554;2024-01-30T02:18:47;102478.09;;;0.81;78.30
81509;BME280;70930;52.412;13.554;2024-01-30T02:21:16;102479.00;;;0.80;77.93
81509;BME280;70930;52.412;13.554;2024-01-30T02:23:43;102478.59;;;0.89;77.54
81509;BME280;70930;52.412;13.554;2024-01-30T02:26:09;102473.81;;;0.98;77.46
81509;BME280;70930;52.412;13.554;2024-01-30T02:28:35;102478.38;;;0.93;76.87
81509;BME280;70930;52.412;13.554;2024-01-30T02:31:00;102477.66;;;0.71;78.27
81509;BME280;70930;52.412;13.554;2024-01-30T02:33:25;102474.34;;;0.86;77.98
81509;BME280;70930;52.412;13.554;2024-01-30T02:35:51;102476.94;;;0.86;77.32
81509;BME280;70930;52.412;13.554;2024-01-30T02:38:16;102468.56;;;0.80;77.54
81509;BME280;70930;52.412;13.554;2024-01-30T02:40:41;102468.81;;;0.73;78.58
81509;BME280;70930;52.412;13.554;2024-01-30T02:43:07;102473.00;;;0.78;77.53
81509;BME280;70930;52.412;13.554;2024-01-30T02:45:32;102469.47;;;0.79;77.59
81509;BME280;70930;52.412;13.554;2024-01-30T02:47:58;102468.09;;;0.70;78.38
81509;BME280;70930;52.412;13.554;2024-01-30T02:50:23;102473.16;;;0.54;78.73
81509;BME280;70930;52.412;13.554;2024-01-30T02:52:49;102473.53;;;0.65;78.35
81509;BME280;70930;52.412;13.554;2024-01-30T02:55:14;102472.03;;;0.41;79.24
81509;BME280;70930;52.412;13.554;2024-01-30T02:57:42;102474.94;;;0.54;79.15
81509;BME280;70930;52.412;13.554;2024-01-30T03:00:08;102462.09;;;0.49;79.37
81509;BME280;70930;52.412;13.554;2024-01-30T03:02:35;102468.75;;;0.56;79.30
81509;BME280;70930;52.412;13.554;2024-01-30T03:05:00;102466.72;;;0.42;78.75
81509;BME280;70930;52.412;13.554;2024-01-30T03:07:26;102465.88;;;0.42;79.36
81509;BME280;70930;52.412;13.554;2024-01-30T03:09:52;102465.75;;;0.45;79.07
81509;BME280;70930;52.412;13.554;2024-01-30T03:12:17;102462.63;;;0.37;79.18
81509;BME280;70930;52.412;13.554;2024-01-30T03:14:43;102459.69;;;0.44;79.36
81509;BME280;70930;52.412;13.554;2024-01-30T03:17:08;102457.09;;;0.43;79.04
81509;BME280;70930;52.412;13.554;2024-01-30T03:19:34;102458.88;;;0.42;79.92
81509;BME280;70930;52.412;13.554;2024-01-30T03:21:59;102459.03;;;0.39;79.90
81509;BME280;70930;52.412;13.554;2024-01-30T03:24:25;102459.16;;;0.36;80.26
81509;BME280;70930;52.412;13.554;2024-01-30T03:26:50;102453.94;;;0.36;80.68
81509;BME280;70930;52.412;13.554;2024-01-30T03:29:16;102449.47;;;0.38;79.73
81509;BME280;70930;52.412;13.554;2024-01-30T03:31:41;102451.19;;;0.39;80.49
81509;BME280;70930;52.412;13.554;2024-01-30T03:34:06;102450.81;;;0.28;80.65
81509;BME280;70930;52.412;13.554;2024-01-30T03:36:32;102449.59;;;0.16;81.75
81509;BME280;70930;52.412;13.554;2024-01-30T03:39:01;102445.00;;;0.21;81.82
81509;BME280;70930;52.412;13.554;2024-01-30T03:41:26;102451.56;;;0.30;80.72
81509;BME280;70930;52.412;13.554;2024-01-30T03:43:52;102443.16;;;0.23;81.39
81509;BME280;70930;52.412;13.554;2024-01-30T03:46:17;102447.13;;;0.12;82.59
81509;BME280;70930;52.412;13.554;2024-01-30T03:48:43;102453.03;;;0.17;82.43
81509;BME280;70930;52.412;13.554;2024-01-30T03:51:09;102445.72;;;0.25;82.04
81509;BME280;70930;52.412;13.554;2024-01-30T03:53:39;102448.84;;;0.33;81.25
81509;BME280;70930;52.412;13.554;2024-01-30T03:56:05;102433.66;;;0.41;81.42
81509;BME280;70930;52.412;13.554;2024-01-30T03:58:30;102435.44;;;0.41;81.18
81509;BME280;70930;52.412;13.554;2024-01-30T04:00:56;102430.47;;;0.35;80.87
81509;BME280;70930;52.412;13.554;2024-01-30T04:03:21;102432.38;;;0.31;81.28
81509;BME280;70930;52.412;13.554;2024-01-30T04:05:46;102436.50;;;0.37;81.14
81509;BME280;70930;52.412;13.554;2024-01-30T04:08:12;102434.13;;;0.31;81.38
81509;BME280;70930;52.412;13.554;2024-01-30T04:10:37;102446.03;;;0.38;81.59
81509;BME280;70930;52.412;13.554;2024-01-30T04:13:02;102447.06;;;0.34;80.76
81509;BME280;70930;52.412;13.554;2024-01-30T04:15:28;102448.72;;;0.36;80.25
81509;BME280;70930;52.412;13.554;2024-01-30T04:17:57;102444.78;;;0.26;80.96
81509;BME280;70930;52.412;13.554;2024-01-30T04:20:23;102455.31;;;0.24;81.03
81509;BME280;70930;52.412;13.554;2024-01-30T04:22:48;102447.59;;;0.21;81.62
81509;BME280;70930;52.412;13.554;2024-01-30T04:25:14;102448.44;;;0.22;81.09
81509;BME280;70930;52.412;13.554;2024-01-30T04:27:39;102453.00;;;0.37;80.79
81509;BME280;70930;52.412;13.554;2024-01-30T04:30:05;102451.16;;;0.20;82.17
81509;BME280;70930;52.412;13.554;2024-01-30T04:32:31;102446.25;;;0.13;81.84
81509;BME280;70930;52.412;13.554;2024-01-30T04:34:57;102446.06;;;-0.03;82.84
81509;BME280;70930;52.412;13.554;2024-01-30T04:37:23;102442.53;;;-0.02;84.24
81509;BME280;70930;52.412;13.554;2024-01-30T04:39:48;102440.34;;;0.08;83.11
81509;BME280;70930;52.412;13.554;2024-01-30T04:42:14;102443.44;;;-0.03;83.43
81509;BME280;70930;52.412;13.554;2024-01-30T04:44:39;102440.72;;;0.00;83.15
81509;BME280;70930;52.412;13.554;2024-01-30T04:47:04;102436.66;;;0.13;83.08
81509;BME280;70930;52.412;13.554;2024-01-30T04:49:31;102442.84;;;0.11;83.55
81509;BME280;70930;52.412;13.554;2024-01-30T04:51:57;102431.75;;;-0.15;85.12
81509;BME280;70930;52.412;13.554;2024-01-30T04:54:23;102434.22;;;0.09;83.76
81509;BME280;70930;52.412;13.554;2024-01-30T04:56:48;102431.63;;;0.09;83.69
81509;BME280;70930;52.412;13.554;2024-01-30T04:59:13;102443.03;;;-0.14;84.70
81509;BME280;70930;52.412;13.554;2024-01-30T05:01:39;102440.16;;;-0.08;84.54
81509;BME280;70930;52.412;13.554;2024-01-30T05:04:07;102439.31;;;-0.09;84.87
81509;BME280;70930;52.412;13.554;2024-01-30T05:06:33;102441.69;;;-0.23;84.69
81509;BME280;70930;52.412;13.554;2024-01-30T05:08:58;102445.38;;;-0.08;85.10
81509;BME280;70930;52.412;13.554;2024-01-30T05:11:23;102442.53;;;-0.02;84.61
81509;BME280;70930;52.412;13.554;2024-01-30T05:13:49;102440.75;;;-0.02;84.04
81509;BME280;70930;52.412;13.554;2024-01-30T05:16:14;102446.31;;;-0.09;84.08
81509;BME280;70930;52.412;13.554;2024-01-30T05:18:39;102437.06;;;0.04;83.56
81509;BME280;70930;52.412;13.554;2024-01-30T05:21:05;102440.56;;;0.03;83.23
81509;BME280;70930;52.412;13.554;2024-01-30T05:23:30;102439.19;;;-0.06;84.55
81509;BME280;70930;52.412;13.554;2024-01-30T05:25:56;102443.97;;;0.05;84.30
81509;BME280;70930;52.412;13.554;2024-01-30T05:28:21;102440.94;;;0.14;84.10
81509;BME280;70930;52.412;13.554;2024-01-30T05:30:47;102431.81;;;0.04;84.23
81509;BME280;70930;52.412;13.554;2024-01-30T05:33:12;102441.81;;;-0.06;85.27
81509;BME280;70930;52.412;13.554;2024-01-30T05:35:38;102442.53;;;-0.02;85.89
81509;BME280;70930;52.412;13.554;2024-01-30T05:38:04;102440.44;;;0.06;85.13
81509;BME280;70930;52.412;13.554;2024-01-30T05:40:30;102440.72;;;0.00;85.38
81509;BME280;70930;52.412;13.554;2024-01-30T05:42:55;102438.88;;;0.02;85.87
81509;BME280;70930;52.412;13.554;2024-01-30T05:45:21;102432.19;;;0.15;84.62
81509;BME280;70930;52.412;13.554;2024-01-30T05:47:48;102435.84;;;0.11;84.52
81509;BME280;70930;52.412;13.554;2024-01-30T05:50:13;102432.19;;;0.15;84.51
81509;BME280;70930;52.412;13.554;2024-01-30T05:52:39;102428.94;;;0.10;84.05
81509;BME280;70930;52.412;13.554;2024-01-30T05:55:04;102432.00;;;-0.01;84.91
81509;BME280;70930;52.412;13.554;2024-01-30T05:57:30;102430.19;;;0.02;84.87
81509;BME280;70930;52.412;13.554;2024-01-30T05:59:56;102434.75;;;0.17;84.19
81509;BME280;70930;52.412;13.554;2024-01-30T06:02:21;102431.13;;;0.19;83.83
81509;BME280;70930;52.412;13.554;2024-01-30T06:04:47;102432.06;;;0.18;84.67
81509;BME280;70930;52.412;13.554;2024-01-30T06:07:12;102424.34;;;0.15;83.96
81509;BME280;70930;52.412;13.554;2024-01-30T06:09:37;102429.97;;;0.06;84.86
81509;BME280;70930;52.412;13.554;2024-01-30T06:12:05;102431.41;;;0.13;85.21
81509;BME280;70930;52.412;13.554;2024-01-30T06:14:30;102429.06;;;0.07;85.00
81509;BME280;70930;52.412;13.554;2024-01-30T06:16:56;102427.25;;;0.09;85.09
81509;BME280;70930;52.412;13.554;2024-01-30T06:19:21;102428.09;;;0.10;85.14
81509;BME280;70930;52.412;13.554;2024-01-30T06:21:46;102424.34;;;0.15;85.59
81509;BME280;70930;52.412;13.554;2024-01-30T06:24:12;102427.88;;;0.14;85.48
81509;BME280;70930;52.412;13.554;2024-01-30T06:26:37;102424.44;;;0.14;85.14
81509;BME280;70930;52.412;13.554;2024-01-30T06:29:03;102418.34;;;0.13;84.96
81509;BME280;70930;52.412;13.554;2024-01-30T06:31:28;102419.72;;;0.22;85.61
81509;BME280;70930;52.412;13.554;2024-01-30T06:33:53;102417.31;;;0.17;84.63
81509;BME280;70930;52.412;13.554;2024-01-30T06:36:19;102421.81;;;0.14;85.12
81509;BME280;70930;52.412;13.554;2024-01-30T06:38:45;102427.50;;;0.03;84.90
81509;BME280;70930;52.412;13.554;2024-01-30T06:41:10;102420.34;;;0.08;86.22
81509;BME280;70930;52.412;13.554;2024-01-30T06:43:35;102427.13;;;0.31;84.73
81509;BME280;70930;52.412;13.554;2024-01-30T06:46:01;102427.34;;;0.27;84.95
81509;BME280;70930;52.412;13.554;2024-01-30T06:48:26;102424.50;;;0.12;85.34
81509;BME280;70930;52.412;13.554;2024-01-30T06:50:54;102422.75;;;0.13;86.88
81509;BME280;70930;52.412;13.554;2024-01-30T06:53:20;102421.22;;;0.28;86.11
81509;BME280;70930;52.412;13.554;2024-01-30T06:55:45;102421.44;;;0.42;85.06
81509;BME280;70930;52.412;13.554;2024-01-30T06:58:11;102417.56;;;0.32;84.69
81509;BME280;70930;52.412;13.554;2024-01-30T07:00:37;102429.56;;;0.55;84.64
81509;BME280;70930;52.412;13.554;2024-01-30T07:03:03;102424.19;;;0.39;83.50
81509;BME280;70930;52.412;13.554;2024-01-30T07:05:28;102426.72;;;0.21;85.27
81509;BME280;70930;52.412;13.554;2024-01-30T07:07:53;102433.06;;;0.16;84.78
81509;BME280;70930;52.412;13.554;2024-01-30T07:10:19;102425.91;;;0.19;85.86
81509;BME280;70930;52.412;13.554;2024-01-30T07:12:44;102432.78;;;0.22;85.90
81509;BME280;70930;52.412;13.554;2024-01-30T07:15:10;102432.53;;;0.28;85.88
81509;BME280;70930;52.412;13.554;2024-01-30T07:17:35;102434.22;;;0.29;85.28
81509;BME280;70930;52.412;13.554;2024-01-30T07:20:01;102428.88;;;0.32;85.02
81509;BME280;70930;52.412;13.554;2024-01-30T07:22:29;102429.63;;;0.34;85.68
81509;BME280;70930;52.412;13.554;2024-01-30T07:24:55;102426.81;;;0.39;84.92
81509;BME280;70930;52.412;13.554;2024-01-30T07:27:20;102421.03;;;0.32;86.02
81509;BME280;70930;52.412;13.554;2024-01-30T07:29:46;102418.13;;;0.38;86.08
81509;BME280;70930;52.412;13.554;2024-01-30T07:32:12;102410.56;;;0.51;85.67
81509;BME280;70930;52.412;13.554;2024-01-30T07:34:37;102412.16;;;0.55;85.19
81509;BME280;70930;52.412;13.554;2024-01-30T07:37:03;102412.69;;;0.62;84.54
81509;BME280;70930;52.412;13.554;2024-01-30T07:39:28;102416.38;;;0.77;84.14
81509;BME280;70930;52.412;13.554;2024-01-30T07:41:53;102416.31;;;0.78;84.40
81509;BME280;70930;52.412;13.554;2024-01-30T07:44:19;102406.63;;;0.80;84.47
81509;BME280;70930;52.412;13.554;2024-01-30T07:46:45;102412.28;;;0.90;84.12
81509;BME280;70930;52.412;13.554;2024-01-30T07:49:10;102410.78;;;1.03;83.54
81509;BME280;70930;52.412;13.554;2024-01-30T07:51:35;102410.78;;;1.03;83.17
81509;BME280;70930;52.412;13.554;2024-01-30T07:54:01;102412.88;;;1.14;83.14
81509;BME280;70930;52.412;13.554;2024-01-30T07:56:26;102415.69;;;1.28;82.16
81509;BME280;70930;52.412;13.554;2024-01-30T07:58:51;102412.72;;;1.36;82.17
81509;BME280;70930;52.412;13.554;2024-01-30T08:01:18;102412.72;;;1.36;81.79
81509;BME280;70930;52.412;13.554;2024-01-30T08:03:43;102409.81;;;1.59;81.46
81509;BME280;70930;52.412;13.554;2024-01-30T08:06:09;102405.34;;;1.61;80.99
81509;BME280;70930;52.412;13.554;2024-01-30T08:08:35;102414.13;;;1.78;80.43
81509;BME280;70930;52.412;13.554;2024-01-30T08:11:00;102406.19;;;1.79;80.25
81509;BME280;70930;52.412;13.554;2024-01-30T08:13:25;102405.03;;;1.85;80.52
81509;BME280;70930;52.412;13.554;2024-01-30T08:15:51;102398.47;;;1.76;80.12
81509;BME280;70930;52.412;13.554;2024-01-30T08:18:16;102399.09;;;1.99;79.67
81509;BME280;70930;52.412;13.554;2024-01-30T08:20:41;102395.34;;;2.20;79.21
81509;BME280;70930;52.412;13.554;2024-01-30T08:23:07;102400.38;;;2.25;78.66
81509;BME280;70930;52.412;13.554;2024-01-30T08:25:33;102403.03;;;2.23;78.49
81509;BME280;70930;52.412;13.554;2024-01-30T08:27:58;102398.91;;;2.52;78.15
81509;BME280;70930;52.412;13.554;2024-01-30T08:30:25;102396.03;;;2.57;77.98
81509;BME280;70930;52.412;13.554;2024-01-30T08:32:50;102393.03;;;2.63;77.54
81509;BME280;70930;52.412;13.554;2024-01-30T08:35:15;102390.69;;;2.58;77.25
81509;BME280;70930;52.412;13.554;2024-01-30T08:37:41;102388.56;;;2.65;76.56
81509;BME280;70930;52.412;13.554;2024-01-30T08:40:07;102376.47;;;2.94;76.60
81509;BME280;70930;52.412;13.554;2024-01-30T08:42:33;102377.16;;;2.66;76.19
81509;BME280;70930;52.412;13.554;2024-01-30T08:44:59;102376.66;;;2.75;76.68
81509;BME280;70930;52.412;13.554;2024-01-30T08:47:24;102366.91;;;2.93;76.19
81509;BME280;70930;52.412;13.554;2024-01-30T08:49:50;102366.78;;;3.10;75.99
81509;BME280;70930;52.412;13.554;2024-01-30T08:52:16;102364.53;;;3.04;75.35
81509;BME280;70930;52.412;13.554;2024-01-30T08:54:41;102362.03;;;3.33;74.54
81509;BME280;70930;52.412;13.554;2024-01-30T08:57:06;102362.91;;;3.48;74.54
81509;BME280;70930;52.412;13.554;2024-01-30T08:59:32;102364.19;;;3.71;73.58
81509;BME280;70930;52.412;13.554;2024-01-30T09:01:58;102370.56;;;3.81;72.31
81509;BME280;70930;52.412;13.554;2024-01-30T09:04:24;102376.72;;;3.96;71.57
81509;BME280;70930;52.412;13.554;2024-01-30T09:06:50;102381.81;;;4.13;71.36
81509;BME280;70930;52.412;13.554;2024-01-30T09:09:16;102381.13;;;4.38;70.75
81509;BME280;70930;52.412;13.554;2024-01-30T09:11:41;102377.56;;;4.39;68.62
81509;BME280;70930;52.412;13.554;2024-01-30T09:14:06;102377.13;;;4.32;70.55
81509;BME280;70930;52.412;13.554;2024-01-30T09:16:32;102377.09;;;4.47;69.31
81509;BME280;70930;52.412;13.554;2024-01-30T09:18:57;102379.41;;;4.65;69.44
81509;BME280;70930;52.412;13.554;2024-01-30T09:21:23;102367.09;;;4.66;68.31
81509;BME280;70930;52.412;13.554;2024-01-30T09:23:48;102370.63;;;4.52;69.12
81509;BME280;70930;52.412;13.554;2024-01-30T09:26:14;102368.41;;;4.73;67.84
81509;BME280;70930;52.412;13.554;2024-01-30T09:28:39;102376.81;;;4.92;67.89
81509;BME280;70930;52.412;13.554;2024-01-30T09:31:09;102372.09;;;4.98;66.97
81509;BME280;70930;52.412;13.554;2024-01-30T09:33:35;102377.41;;;5.10;67.01
81509;BME280;70930;52.412;13.554;2024-01-30T09:36:01;102378.13;;;5.27;65.74
81509;BME280;70930;52.412;13.554;2024-01-30T09:38:26;102375.41;;;5.41;65.54
81509;BME280;70930;52.412;13.554;2024-01-30T09:40:54;102375.91;;;5.33;65.34
81509;BME280;70930;52.412;13.554;2024-01-30T09:43:22;102375.31;;;5.43;65.53
81509;BME280;70930;52.412;13.554;2024-01-30T09:45:50;102373.59;;;5.41;65.70
81509;BME280;70930;52.412;13.554;2024-01-30T09:48:15;102374.50;;;5.68;64.61
81509;BME280;70930;52.412;13.554;2024-01-30T09:50:41;102359.84;;;5.51;63.09
81509;BME280;70930;52.412;13.554;2024-01-30T09:53:08;102361.00;;;5.59;64.81
81509;BME280;70930;52.412;13.554;2024-01-30T09:55:35;102365.78;;;5.80;63.39
81509;BME280;70930;52.412;13.554;2024-01-30T09:58:01;102369.69;;;5.87;62.72
81509;BME280;70930;52.412;13.554;2024-01-30T10:00:26;102362.72;;;5.86;62.54
81509;BME280;70930;52.412;13.554;2024-01-30T10:02:52;102365.19;;;6.02;62.72
81509;BME280;70930;52.412;13.554;2024-01-30T10:05:19;102368.72;;;5.88;62.48
81509;BME280;70930;52.412;13.554;2024-01-30T10:07:55;102357.91;;;6.18;61.09
81509;BME280;70930;52.412;13.554;2024-01-30T10:10:24;102358.22;;;6.26;62.11
81509;BME280;70930;52.412;13.554;2024-01-30T10:12:49;102353.56;;;6.30;61.44
81509;BME280;70930;52.412;13.554;2024-01-30T10:15:15;102347.56;;;6.15;60.89
81509;BME280;70930;52.412;13.554;2024-01-30T10:17:40;102343.19;;;6.39;61.46
81509;BME280;70930;52.412;13.554;2024-01-30T10:20:06;102354.50;;;6.42;59.64
81509;BME280;70930;52.412;13.554;2024-01-30T10:22:33;102352.59;;;6.68;59.90
81509;BME280;70930;52.412;13.554;2024-01-30T10:25:00;102342.06;;;6.68;59.27
81509;BME280;70930;52.412;13.554;2024-01-30T10:27:26;102341.91;;;6.82;58.43
81509;BME280;70930;52.412;13.554;2024-01-30T10:29:52;102341.78;;;6.83;58.86
81509;BME280;70930;52.412;13.554;2024-01-30T10:32:17;102342.97;;;7.03;57.34
81509;BME280;70930;52.412;13.554;2024-01-30T10:34:43;102333.75;;;7.09;57.01
81509;BME280;70930;52.412;13.554;2024-01-30T10:37:09;102332.91;;;7.08;57.75
81509;BME280;70930;52.412;13.554;2024-01-30T10:39:41;102330.16;;;7.10;56.41
81509;BME280;70930;52.412;13.554;2024-01-30T10:42:11;102326.78;;;7.32;56.02
81509;BME280;70930;52.412;13.554;2024-01-30T10:44:43;102329.41;;;7.32;56.01
81509;BME280;70930;52.412;13.554;2024-01-30T10:47:11;102327.81;;;7.29;55.35
81509;BME280;70930;52.412;13.554;2024-01-30T10:49:39;102331.09;;;7.33;56.53
81509;BME280;70930;52.412;13.554;2024-01-30T10:52:07;102337.22;;;7.33;55.83
81509;BME280;70930;52.412;13.554;2024-01-30T10:54:34;102327.16;;;7.50;54.91
81509;BME280;70930;52.412;13.554;2024-01-30T10:57:00;102336.94;;;7.60;54.58
81509;BME280;70930;52.412;13.554;2024-01-30T10:59:30;102333.69;;;7.68;55.04
81509;BME280;70930;52.412;13.554;2024-01-30T11:01:57;102327.56;;;7.68;53.89
81509;BME280;70930;52.412;13.554;2024-01-30T11:04:24;102324.97;;;7.90;54.13
81509;BME280;70930;52.412;13.554;2024-01-30T11:06:50;102319.41;;;7.93;53.25
81509;BME280;70930;52.412;13.554;2024-01-30T11:09:17;102319.19;;;7.96;54.05
81509;BME280;70930;52.412;13.554;2024-01-30T11:11:58;102322.31;;;7.79;54.21
81509;BME280;70930;52.412;13.554;2024-01-30T11:14:29;102324.56;;;7.72;54.05
81509;BME280;70930;52.412;13.554;2024-01-30T11:16:58;102324.22;;;7.88;53.87
81509;BME280;70930;52.412;13.554;2024-01-30T11:19:27;102320.53;;;7.91;54.81
81509;BME280;70930;52.412;13.554;2024-01-30T11:21:55;102318.81;;;7.90;53.60
81509;BME280;70930;52.412;13.554;2024-01-30T11:24:23;102312.34;;;7.82;53.27
81509;BME280;70930;52.412;13.554;2024-01-30T11:26:58;102309.94;;;8.02;54.25
81509;BME280;70930;52.412;13.554;2024-01-30T11:29:25;102305.38;;;8.04;53.50
81509;BME280;70930;52.412;13.554;2024-01-30T11:31:58;102317.72;;;7.81;53.98
81509;BME280;70930;52.412;13.554;2024-01-30T11:34:24;102307.28;;;7.91;53.53
81509;BME280;70930;52.412;13.554;2024-01-30T11:36:56;102304.16;;;7.85;54.31
81509;BME280;70930;52.412;13.554;2024-01-30T11:39:27;102302.34;;;8.08;53.59
81509;BME280;70930;52.412;13.554;2024-01-30T11:41:54;102301.38;;;8.21;53.77
81509;BME280;70930;52.412;13.554;2024-01-30T11:44:20;102305.72;;;7.99;54.10
81509;BME280;70930;52.412;13.554;2024-01-30T11:46:47;102304.91;;;8.10;53.92
81509;BME280;70930;52.412;13.554;2024-01-30T11:49:13;102302.81;;;8.25;53.97
81509;BME280;70930;52.412;13.554;2024-01-30T11:51:38;102298.59;;;8.45;54.50
81509;BME280;70930;52.412;13.554;2024-01-30T11:54:04;102301.28;;;8.33;53.38
81509;BME280;70930;52.412;13.554;2024-01-30T11:56:29;102299.22;;;8.48;53.40
81509;BME280;70930;52.412;13.554;2024-01-30T11:58:55;102299.59;;;8.44;53.51
81509;BME280;70930;52.412;13.554;2024-01-30T12:01:20;102299.56;;;8.21;53.88
81509;BME280;70930;52.412;13.554;2024-01-30T12:03:49;102299.69;;;8.31;54.54
81509;BME280;70930;52.412;13.554;2024-01-30T12:06:15;102298.13;;;8.28;54.43
81509;BME280;70930;52.412;13.554;2024-01-30T12:08:41;102300.78;;;8.28;55.17
81509;BME280;70930;52.412;13.554;2024-01-30T12:11:07;102294.66;;;8.50;53.45
81509;BME280;70930;52.412;13.554;2024-01-30T12:13:32;102298.81;;;8.64;54.33
81509;BME280;70930;52.412;13.554;2024-01-30T12:15:58;102288.56;;;8.71;54.71
81509;BME280;70930;52.412;13.554;2024-01-30T12:18:24;102286.91;;;8.70;53.77
81509;BME280;70930;52.412;13.554;2024-01-30T12:21:01;102279.13;;;8.57;54.37
81509;BME280;70930;52.412;13.554;2024-01-30T12:23:27;102281.03;;;8.55;54.10
81509;BME280;70930;52.412;13.554;2024-01-30T12:25:53;102279.69;;;8.60;53.85
81509;BME280;70930;52.412;13.554;2024-01-30T12:28:20;102276.09;;;8.62;54.87
81509;BME280;70930;52.412;13.554;2024-01-30T12:30:45;102275.28;;;8.50;54.88
81509;BME280;70930;52.412;13.554;2024-01-30T12:33:16;102277.47;;;8.77;54.93
81509;BME280;70930;52.412;13.554;2024-01-30T12:35:45;102277.69;;;8.85;55.55
81509;BME280;70930;52.412;13.554;2024-01-30T12:38:10;102272.19;;;8.77;54.94
81509;BME280;70930;52.412;13.554;2024-01-30T12:40:36;102262.25;;;8.90;55.05
81509;BME280;70930;52.412;13.554;2024-01-30T12:43:02;102262.03;;;8.82;54.07